sensor_id;sensor_type;location;lat;lon;timestamp;P1;durP1;ratioP1;P2;durP2;ratioP2
63534;SDS011;55128;50.230;18.944;2023-02-10T00:02:08;25.13;;;13.57;;
63534;SDS011;55128;50.230;18.944;2023-02-10T00:07:08;24.52;;;12.75;;
63534;SDS011;55128;50.230;18.944;2023-02-10T00:12:09;21.88;;;11.57;;
63534;SDS011;55128;50.230;18.944;2023-02-10T00:17:11;27.80;;;12.82;;
63534;SDS011;55128;50.230;18.944;2023-02-10T00:22:13;21.17;;;12.82;;
63534;SDS011;55128;50.230;18.944;2023-02-10T00:27:13;21.42;;;11.43;;
63534;SDS011;55128;50.230;18.944;2023-02-10T00:32:14;19.75;;;11.77;;
63534;SDS011;55128;50.230;18.944;2023-02-10T00:37:16;19.65;;;10.77;;
63534;SDS011;55128;50.230;18.944;2023-02-10T00:42:16;19.05;;;10.32;;
63534;SDS011;55128;50.230;18.944;2023-02-10T00:47:16;18.48;;;10.98;;
63534;SDS011;55128;50.230;18.944;2023-02-10T00:52:17;20.70;;;11.55;;
63534;SDS011;55128;50.230;18.944;2023-02-10T00:57:18;22.50;;;11.68;;
63534;SDS011;55128;50.230;18.944;2023-02-10T01:02:18;20.50;;;11.70;;
63534;SDS011;55128;50.230;18.944;2023-02-10T01:07:19;23.23;;;11.55;;
63534;SDS011;55128;50.230;18.944;2023-02-10T01:12:19;19.58;;;10.80;;
63534;SDS011;55128;50.230;18.944;2023-02-10T01:17:20;20.17;;;11.57;;
63534;SDS011;55128;50.230;18.944;2023-02-10T01:22:21;22.05;;;11.50;;
63534;SDS011;55128;50.230;18.944;2023-02-10T01:27:21;22.17;;;11.68;;
63534;SDS011;55128;50.230;18.944;2023-02-10T01:32:22;22.73;;;11.82;;
63534;SDS011;55128;50.230;18.944;2023-02-10T01:37:22;25.75;;;12.68;;
63534;SDS011;55128;50.230;18.944;2023-02-10T01:42:22;19.85;;;11.60;;
63534;SDS011;55128;50.230;18.944;2023-02-10T01:47:23;22.08;;;12.07;;
63534;SDS011;55128;50.230;18.944;2023-02-10T01:52:25;23.73;;;13.00;;
63534;SDS011;55128;50.230;18.944;2023-02-10T01:57:29;23.38;;;13.07;;
63534;SDS011;55128;50.230;18.944;2023-02-10T02:02:30;24.80;;;12.63;;
63534;SDS011;55128;50.230;18.944;2023-02-10T02:07:35;21.63;;;11.80;;
63534;SDS011;55128;50.230;18.944;2023-02-10T02:18:05;23.55;;;12.13;;
63534;SDS011;55128;50.230;18.944;2023-02-10T02:28:44;26.27;;;13.43;;
63534;SDS011;55128;50.230;18.944;2023-02-10T02:33:51;24.95;;;13.10;;
63534;SDS011;55128;50.230;18.944;2023-02-10T02:39:03;23.20;;;13.27;;
63534;SDS011;55128;50.230;18.944;2023-02-10T02:44:04;28.00;;;13.90;;
63534;SDS011;55128;50.230;18.944;2023-02-10T02:49:13;23.65;;;13.05;;
63534;SDS011;55128;50.230;18.944;2023-02-10T02:59:43;22.23;;;12.10;;
63534;SDS011;55128;50.230;18.944;2023-02-10T03:04:49;23.15;;;12.35;;
63534;SDS011;55128;50.230;18.944;2023-02-10T03:09:49;19.83;;;11.60;;
63534;SDS011;55128;50.230;18.944;2023-02-10T03:14:50;19.88;;;12.57;;
63534;SDS011;55128;50.230;18.944;2023-02-10T03:19:50;25.77;;;12.65;;
63534;SDS011;55128;50.230;18.944;2023-02-10T03:24:51;24.23;;;12.82;;
63534;SDS011;55128;50.230;18.944;2023-02-10T03:29:51;21.02;;;12.48;;
63534;SDS011;55128;50.230;18.944;2023-02-10T03:34:52;20.15;;;11.80;;
63534;SDS011;55128;50.230;18.944;2023-02-10T03:39:52;20.35;;;11.75;;
63534;SDS011;55128;50.230;18.944;2023-02-10T03:44:52;22.70;;;12.07;;
63534;SDS011;55128;50.230;18.944;2023-02-10T03:49:53;21.73;;;12.07;;
63534;SDS011;55128;50.230;18.944;2023-02-10T03:54:53;16.35;;;10.38;;
63534;SDS011;55128;50.230;18.944;2023-02-10T03:59:53;18.85;;;10.93;;
63534;SDS011;55128;50.230;18.944;2023-02-10T04:04:54;22.40;;;11.57;;
63534;SDS011;55128;50.230;18.944;2023-02-10T04:09:54;20.10;;;11.00;;
63534;SDS011;55128;50.230;18.944;2023-02-10T04:14:55;20.08;;;11.02;;
63534;SDS011;55128;50.230;18.944;2023-02-10T04:19:55;20.80;;;12.10;;
63534;SDS011;55128;50.230;18.944;2023-02-10T04:24:55;18.95;;;11.00;;
63534;SDS011;55128;50.230;18.944;2023-02-10T04:29:56;19.63;;;10.82;;
63534;SDS011;55128;50.230;18.944;2023-02-10T04:34:56;19.13;;;10.45;;
63534;SDS011;55128;50.230;18.944;2023-02-10T04:39:56;18.10;;;10.63;;
63534;SDS011;55128;50.230;18.944;2023-02-10T04:44:58;18.85;;;10.32;;
63534;SDS011;55128;50.230;18.944;2023-02-10T04:49:59;19.88;;;11.65;;
63534;SDS011;55128;50.230;18.944;2023-02-10T04:54:59;18.67;;;10.25;;
63534;SDS011;55128;50.230;18.944;2023-02-10T05:00:00;18.45;;;10.15;;
63534;SDS011;55128;50.230;18.944;2023-02-10T05:05:00;17.00;;;9.77;;
63534;SDS011;55128;50.230;18.944;2023-02-10T05:10:01;19.42;;;10.10;;
63534;SDS011;55128;50.230;18.944;2023-02-10T05:15:02;20.17;;;11.00;;
63534;SDS011;55128;50.230;18.944;2023-02-10T05:20:02;18.13;;;10.23;;
63534;SDS011;55128;50.230;18.944;2023-02-10T05:25:03;23.77;;;11.02;;
63534;SDS011;55128;50.230;18.944;2023-02-10T05:30:04;21.17;;;11.52;;
63534;SDS011;55128;50.230;18.944;2023-02-10T05:35:06;21.67;;;11.38;;
63534;SDS011;55128;50.230;18.944;2023-02-10T05:40:07;22.83;;;11.60;;
63534;SDS011;55128;50.230;18.944;2023-02-10T05:45:07;21.30;;;11.32;;
63534;SDS011;55128;50.230;18.944;2023-02-10T05:50:08;20.05;;;10.88;;
63534;SDS011;55128;50.230;18.944;2023-02-10T05:55:09;23.15;;;11.57;;
63534;SDS011;55128;50.230;18.944;2023-02-10T06:00:10;19.88;;;11.43;;
63534;SDS011;55128;50.230;18.944;2023-02-10T06:05:11;22.73;;;12.32;;
63534;SDS011;55128;50.230;18.944;2023-02-10T06:10:11;22.80;;;13.60;;
63534;SDS011;55128;50.230;18.944;2023-02-10T06:15:11;26.20;;;14.50;;
63534;SDS011;55128;50.230;18.944;2023-02-10T06:20:12;23.33;;;12.33;;
63534;SDS011;55128;50.230;18.944;2023-02-10T06:25:12;24.13;;;12.43;;
63534;SDS011;55128;50.230;18.944;2023-02-10T06:30:13;24.45;;;12.82;;
63534;SDS011;55128;50.230;18.944;2023-02-10T06:35:13;26.67;;;12.75;;
63534;SDS011;55128;50.230;18.944;2023-02-10T06:40:14;21.17;;;11.82;;
63534;SDS011;55128;50.230;18.944;2023-02-10T06:45:15;24.67;;;12.85;;
63534;SDS011;55128;50.230;18.944;2023-02-10T06:50:15;23.65;;;12.35;;
63534;SDS011;55128;50.230;18.944;2023-02-10T06:55:17;23.67;;;12.88;;
63534;SDS011;55128;50.230;18.944;2023-02-10T07:00:18;24.90;;;13.50;;
63534;SDS011;55128;50.230;18.944;2023-02-10T07:05:18;23.92;;;12.88;;
63534;SDS011;55128;50.230;18.944;2023-02-10T07:10:19;23.80;;;13.60;;
63534;SDS011;55128;50.230;18.944;2023-02-10T07:15:20;24.40;;;14.80;;
63534;SDS011;55128;50.230;18.944;2023-02-10T07:20:23;28.05;;;15.85;;
63534;SDS011;55128;50.230;18.944;2023-02-10T07:25:23;24.88;;;14.90;;
63534;SDS011;55128;50.230;18.944;2023-02-10T07:30:24;24.08;;;15.32;;
63534;SDS011;55128;50.230;18.944;2023-02-10T07:35:24;24.70;;;15.98;;
63534;SDS011;55128;50.230;18.944;2023-02-10T07:40:25;24.17;;;16.42;;
63534;SDS011;55128;50.230;18.944;2023-02-10T07:45:28;24.80;;;17.83;;
63534;SDS011;55128;50.230;18.944;2023-02-10T07:50:30;24.00;;;16.27;;
63534;SDS011;55128;50.230;18.944;2023-02-10T07:55:31;22.80;;;16.20;;
63534;SDS011;55128;50.230;18.944;2023-02-10T08:00:31;23.17;;;17.07;;
63534;SDS011;55128;50.230;18.944;2023-02-10T08:05:34;22.38;;;16.05;;
63534;SDS011;55128;50.230;18.944;2023-02-10T08:10:38;25.05;;;16.02;;
63534;SDS011;55128;50.230;18.944;2023-02-10T08:15:39;23.43;;;16.83;;
63534;SDS011;55128;50.230;18.944;2023-02-10T08:20:39;23.63;;;15.87;;
63534;SDS011;55128;50.230;18.944;2023-02-10T08:25:40;24.98;;;17.10;;
63534;SDS011;55128;50.230;18.944;2023-02-10T08:30:41;27.67;;;15.93;;
63534;SDS011;55128;50.230;18.944;2023-02-10T08:35:41;23.33;;;15.50;;
63534;SDS011;55128;50.230;18.944;2023-02-10T08:40:41;24.33;;;15.35;;
63534;SDS011;55128;50.230;18.944;2023-02-10T08:45:42;24.55;;;14.75;;
63534;SDS011;55128;50.230;18.944;2023-02-10T08:50:42;26.00;;;16.10;;
63534;SDS011;55128;50.230;18.944;2023-02-10T08:55:44;30.05;;;17.80;;
63534;SDS011;55128;50.230;18.944;2023-02-10T09:00:44;24.23;;;16.87;;
63534;SDS011;55128;50.230;18.944;2023-02-10T09:05:44;26.25;;;19.15;;
63534;SDS011;55128;50.230;18.944;2023-02-10T09:10:46;26.45;;;18.98;;
63534;SDS011;55128;50.230;18.944;2023-02-10T09:15:47;28.48;;;17.95;;
63534;SDS011;55128;50.230;18.944;2023-02-10T09:20:47;24.23;;;18.27;;
63534;SDS011;55128;50.230;18.944;2023-02-10T09:25:57;24.17;;;19.75;;
63534;SDS011;55128;50.230;18.944;2023-02-10T09:30:59;24.38;;;19.05;;
63534;SDS011;55128;50.230;18.944;2023-02-10T09:36:02;21.83;;;17.08;;
63534;SDS011;55128;50.230;18.944;2023-02-10T09:57:22;24.98;;;17.08;;
63534;SDS011;55128;50.230;18.944;2023-02-10T10:02:39;20.25;;;15.57;;
63534;SDS011;55128;50.230;18.944;2023-02-10T10:07:47;24.13;;;15.93;;
63534;SDS011;55128;50.230;18.944;2023-02-10T10:12:50;22.75;;;15.98;;
63534;SDS011;55128;50.230;18.944;2023-02-10T10:23:30;22.58;;;15.43;;
63534;SDS011;55128;50.230;18.944;2023-02-10T10:33:56;24.27;;;16.48;;
63534;SDS011;55128;50.230;18.944;2023-02-10T10:44:28;31.58;;;17.70;;
63534;SDS011;55128;50.230;18.944;2023-02-10T10:49:30;32.42;;;18.48;;
63534;SDS011;55128;50.230;18.944;2023-02-10T10:54:31;30.37;;;18.87;;
63534;SDS011;55128;50.230;18.944;2023-02-10T10:59:37;26.33;;;16.92;;
63534;SDS011;55128;50.230;18.944;2023-02-10T11:04:42;33.47;;;20.33;;
63534;SDS011;55128;50.230;18.944;2023-02-10T11:09:48;30.85;;;19.13;;
63534;SDS011;55128;50.230;18.944;2023-02-10T11:14:51;26.27;;;16.23;;
63534;SDS011;55128;50.230;18.944;2023-02-10T11:19:56;27.27;;;16.40;;
63534;SDS011;55128;50.230;18.944;2023-02-10T11:25:00;27.43;;;17.20;;
63534;SDS011;55128;50.230;18.944;2023-02-10T11:30:02;29.13;;;16.83;;
63534;SDS011;55128;50.230;18.944;2023-02-10T11:35:03;27.42;;;17.15;;
63534;SDS011;55128;50.230;18.944;2023-02-10T11:40:17;29.92;;;17.95;;
63534;SDS011;55128;50.230;18.944;2023-02-10T11:45:25;32.00;;;18.00;;
63534;SDS011;55128;50.230;18.944;2023-02-10T11:50:32;27.10;;;16.00;;
63534;SDS011;55128;50.230;18.944;2023-02-10T11:55:37;29.58;;;16.80;;
63534;SDS011;55128;50.230;18.944;2023-02-10T12:00:51;31.77;;;16.20;;
63534;SDS011;55128;50.230;18.944;2023-02-10T12:16:57;28.05;;;16.95;;
63534;SDS011;55128;50.230;18.944;2023-02-10T12:22:18;28.10;;;16.90;;
63534;SDS011;55128;50.230;18.944;2023-02-10T12:27:41;30.45;;;17.05;;
63534;SDS011;55128;50.230;18.944;2023-02-10T12:32:59;29.00;;;17.70;;
63534;SDS011;55128;50.230;18.944;2023-02-10T12:48:32;29.25;;;16.55;;
63534;SDS011;55128;50.230;18.944;2023-02-10T12:54:31;32.25;;;19.20;;
63534;SDS011;55128;50.230;18.944;2023-02-10T12:59:35;33.80;;;19.73;;
63534;SDS011;55128;50.230;18.944;2023-02-10T13:04:47;34.17;;;20.45;;
63534;SDS011;55128;50.230;18.944;2023-02-10T13:10:35;31.42;;;18.83;;
63534;SDS011;55128;50.230;18.944;2023-02-10T13:15:26;33.20;;;19.55;;
63534;SDS011;55128;50.230;18.944;2023-02-10T13:20:46;37.72;;;20.33;;
63534;SDS011;55128;50.230;18.944;2023-02-10T13:36:15;35.60;;;19.33;;
63534;SDS011;55128;50.230;18.944;2023-02-10T13:41:25;36.05;;;19.20;;
63534;SDS011;55128;50.230;18.944;2023-02-10T13:46:41;38.22;;;21.70;;
63534;SDS011;55128;50.230;18.944;2023-02-10T13:51:41;35.13;;;20.15;;
63534;SDS011;55128;50.230;18.944;2023-02-10T13:56:51;34.05;;;19.67;;
63534;SDS011;55128;50.230;18.944;2023-02-10T14:40:30;34.33;;;20.23;;
63534;SDS011;55128;50.230;18.944;2023-02-10T14:45:31;31.90;;;19.73;;
63534;SDS011;55128;50.230;18.944;2023-02-10T14:51:04;37.03;;;20.45;;
63534;SDS011;55128;50.230;18.944;2023-02-10T14:56:24;36.42;;;20.13;;
63534;SDS011;55128;50.230;18.944;2023-02-10T15:07:45;44.63;;;21.75;;
63534;SDS011;55128;50.230;18.944;2023-02-10T15:12:52;47.90;;;22.05;;
63534;SDS011;55128;50.230;18.944;2023-02-10T15:17:55;37.33;;;20.98;;
63534;SDS011;55128;50.230;18.944;2023-02-10T15:28:16;44.58;;;23.50;;
63534;SDS011;55128;50.230;18.944;2023-02-10T15:33:23;42.15;;;22.80;;
63534;SDS011;55128;50.230;18.944;2023-02-10T15:38:31;37.95;;;22.25;;
63534;SDS011;55128;50.230;18.944;2023-02-10T15:43:32;35.33;;;20.05;;
63534;SDS011;55128;50.230;18.944;2023-02-10T15:48:35;37.63;;;20.60;;
63534;SDS011;55128;50.230;18.944;2023-02-10T15:53:35;36.73;;;20.23;;
63534;SDS011;55128;50.230;18.944;2023-02-10T15:58:36;36.22;;;20.95;;
63534;SDS011;55128;50.230;18.944;2023-02-10T16:03:37;41.20;;;21.60;;
63534;SDS011;55128;50.230;18.944;2023-02-10T16:08:37;39.03;;;22.43;;
63534;SDS011;55128;50.230;18.944;2023-02-10T16:13:38;50.28;;;24.10;;
63534;SDS011;55128;50.230;18.944;2023-02-10T16:18:39;45.35;;;25.33;;
63534;SDS011;55128;50.230;18.944;2023-02-10T16:23:39;46.40;;;25.15;;
63534;SDS011;55128;50.230;18.944;2023-02-10T16:28:40;45.50;;;24.83;;
63534;SDS011;55128;50.230;18.944;2023-02-10T16:33:41;45.90;;;24.73;;
63534;SDS011;55128;50.230;18.944;2023-02-10T16:38:43;42.35;;;24.10;;
63534;SDS011;55128;50.230;18.944;2023-02-10T16:43:43;47.72;;;25.95;;
63534;SDS011;55128;50.230;18.944;2023-02-10T16:48:44;50.10;;;26.17;;
63534;SDS011;55128;50.230;18.944;2023-02-10T16:53:44;56.53;;;27.77;;
63534;SDS011;55128;50.230;18.944;2023-02-10T16:58:49;54.38;;;29.00;;
63534;SDS011;55128;50.230;18.944;2023-02-10T17:03:50;57.83;;;29.05;;
63534;SDS011;55128;50.230;18.944;2023-02-10T17:08:51;53.45;;;28.20;;
63534;SDS011;55128;50.230;18.944;2023-02-10T17:13:53;63.50;;;29.83;;
63534;SDS011;55128;50.230;18.944;2023-02-10T17:18:54;56.55;;;29.60;;
63534;SDS011;55128;50.230;18.944;2023-02-10T17:24:01;53.17;;;27.42;;
63534;SDS011;55128;50.230;18.944;2023-02-10T17:29:12;59.13;;;28.52;;
63534;SDS011;55128;50.230;18.944;2023-02-10T17:34:14;59.83;;;29.10;;
63534;SDS011;55128;50.230;18.944;2023-02-10T17:39:16;54.85;;;27.85;;
63534;SDS011;55128;50.230;18.944;2023-02-10T17:44:24;52.08;;;27.10;;
63534;SDS011;55128;50.230;18.944;2023-02-10T17:49:26;54.42;;;27.30;;
63534;SDS011;55128;50.230;18.944;2023-02-10T17:54:28;52.50;;;27.98;;
63534;SDS011;55128;50.230;18.944;2023-02-10T17:59:30;53.95;;;27.83;;
63534;SDS011;55128;50.230;18.944;2023-02-10T18:04:32;56.63;;;28.02;;
63534;SDS011;55128;50.230;18.944;2023-02-10T18:09:32;60.72;;;29.92;;
63534;SDS011;55128;50.230;18.944;2023-02-10T18:14:34;55.53;;;28.95;;
63534;SDS011;55128;50.230;18.944;2023-02-10T18:19:35;50.58;;;26.33;;
63534;SDS011;55128;50.230;18.944;2023-02-10T18:24:38;51.92;;;26.67;;
63534;SDS011;55128;50.230;18.944;2023-02-10T18:29:38;48.42;;;26.83;;
63534;SDS011;55128;50.230;18.944;2023-02-10T18:34:41;55.00;;;29.73;;
63534;SDS011;55128;50.230;18.944;2023-02-10T18:39:41;52.75;;;27.38;;
63534;SDS011;55128;50.230;18.944;2023-02-10T18:44:44;51.42;;;27.10;;
63534;SDS011;55128;50.230;18.944;2023-02-10T18:49:44;52.72;;;28.67;;
63534;SDS011;55128;50.230;18.944;2023-02-10T19:06:01;46.88;;;26.30;;
63534;SDS011;55128;50.230;18.944;2023-02-10T19:11:03;52.15;;;27.38;;
63534;SDS011;55128;50.230;18.944;2023-02-10T19:16:05;48.05;;;26.05;;
63534;SDS011;55128;50.230;18.944;2023-02-10T19:21:06;55.30;;;28.40;;
63534;SDS011;55128;50.230;18.944;2023-02-10T19:26:13;53.65;;;27.42;;
63534;SDS011;55128;50.230;18.944;2023-02-10T19:31:14;53.10;;;27.38;;
63534;SDS011;55128;50.230;18.944;2023-02-10T19:36:16;48.92;;;27.55;;
63534;SDS011;55128;50.230;18.944;2023-02-10T19:41:20;51.92;;;29.42;;
63534;SDS011;55128;50.230;18.944;2023-02-10T19:46:22;58.03;;;28.77;;
63534;SDS011;55128;50.230;18.944;2023-02-10T19:51:23;59.08;;;28.98;;
63534;SDS011;55128;50.230;18.944;2023-02-10T19:56:24;58.05;;;29.05;;
63534;SDS011;55128;50.230;18.944;2023-02-10T20:01:24;52.47;;;29.17;;
63534;SDS011;55128;50.230;18.944;2023-02-10T20:06:26;60.97;;;31.23;;
63534;SDS011;55128;50.230;18.944;2023-02-10T20:11:33;65.03;;;31.90;;
63534;SDS011;55128;50.230;18.944;2023-02-10T20:16:44;60.45;;;30.98;;
63534;SDS011;55128;50.230;18.944;2023-02-10T20:21:45;65.05;;;31.60;;
63534;SDS011;55128;50.230;18.944;2023-02-10T20:26:46;59.90;;;31.55;;
63534;SDS011;55128;50.230;18.944;2023-02-10T20:31:46;58.00;;;30.45;;
63534;SDS011;55128;50.230;18.944;2023-02-10T20:36:47;58.80;;;29.37;;
63534;SDS011;55128;50.230;18.944;2023-02-10T20:41:47;57.67;;;30.13;;
63534;SDS011;55128;50.230;18.944;2023-02-10T20:46:47;64.68;;;31.88;;
63534;SDS011;55128;50.230;18.944;2023-02-10T20:51:48;55.42;;;28.55;;
63534;SDS011;55128;50.230;18.944;2023-02-10T20:56:48;74.57;;;36.03;;
63534;SDS011;55128;50.230;18.944;2023-02-10T21:01:49;70.03;;;32.47;;
63534;SDS011;55128;50.230;18.944;2023-02-10T21:06:50;71.53;;;33.10;;
63534;SDS011;55128;50.230;18.944;2023-02-10T21:11:50;66.72;;;34.50;;
63534;SDS011;55128;50.230;18.944;2023-02-10T21:16:51;62.50;;;30.77;;
63534;SDS011;55128;50.230;18.944;2023-02-10T21:21:51;60.25;;;32.30;;
63534;SDS011;55128;50.230;18.944;2023-02-10T21:26:51;61.00;;;32.83;;
63534;SDS011;55128;50.230;18.944;2023-02-10T21:31:53;67.47;;;31.70;;
63534;SDS011;55128;50.230;18.944;2023-02-10T21:36:54;59.97;;;31.33;;
63534;SDS011;55128;50.230;18.944;2023-02-10T21:41:55;63.45;;;31.90;;
63534;SDS011;55128;50.230;18.944;2023-02-10T21:46:58;60.33;;;31.23;;
63534;SDS011;55128;50.230;18.944;2023-02-10T21:52:01;64.35;;;32.20;;
63534;SDS011;55128;50.230;18.944;2023-02-10T21:57:03;56.95;;;30.15;;
63534;SDS011;55128;50.230;18.944;2023-02-10T22:02:06;65.07;;;32.05;;
63534;SDS011;55128;50.230;18.944;2023-02-10T22:07:07;58.50;;;30.65;;
63534;SDS011;55128;50.230;18.944;2023-02-10T22:12:07;62.17;;;32.08;;
63534;SDS011;55128;50.230;18.944;2023-02-10T22:17:08;65.72;;;33.97;;
63534;SDS011;55128;50.230;18.944;2023-02-10T22:22:09;64.38;;;34.17;;
63534;SDS011;55128;50.230;18.944;2023-02-10T22:27:09;66.93;;;32.55;;
63534;SDS011;55128;50.230;18.944;2023-02-10T22:32:09;61.00;;;31.17;;
63534;SDS011;55128;50.230;18.944;2023-02-10T22:37:10;62.57;;;31.13;;
63534;SDS011;55128;50.230;18.944;2023-02-10T22:42:10;59.05;;;31.73;;
63534;SDS011;55128;50.230;18.944;2023-02-10T22:47:10;57.78;;;30.35;;
63534;SDS011;55128;50.230;18.944;2023-02-10T22:52:11;58.50;;;30.98;;
63534;SDS011;55128;50.230;18.944;2023-02-10T22:57:11;65.05;;;31.17;;
63534;SDS011;55128;50.230;18.944;2023-02-10T23:02:12;55.53;;;29.07;;
63534;SDS011;55128;50.230;18.944;2023-02-10T23:07:12;60.40;;;30.55;;
63534;SDS011;55128;50.230;18.944;2023-02-10T23:12:12;58.83;;;29.20;;
63534;SDS011;55128;50.230;18.944;2023-02-10T23:17:13;60.20;;;30.65;;
63534;SDS011;55128;50.230;18.944;2023-02-10T23:22:13;61.83;;;30.58;;
63534;SDS011;55128;50.230;18.944;2023-02-10T23:27:13;55.60;;;29.42;;
63534;SDS011;55128;50.230;18.944;2023-02-10T23:32:14;56.70;;;30.10;;
63534;SDS011;55128;50.230;18.944;2023-02-10T23:37:15;60.78;;;30.85;;
63534;SDS011;55128;50.230;18.944;2023-02-10T23:42:15;59.30;;;29.08;;
63534;SDS011;55128;50.230;18.944;2023-02-10T23:47:16;67.65;;;32.22;;
63534;SDS011;55128;50.230;18.944;2023-02-10T23:52:16;72.80;;;34.77;;
63534;SDS011;55128;50.230;18.944;2023-02-10T23:57:16;68.47;;;31.53;;
